createdAt,value
2019-05-05T00:01:41.671Z,86.52
2019-05-05T00:04:27.207Z,86.99
2019-05-05T00:06:59.169Z,86.94
2019-05-05T00:09:31.309Z,86.75
2019-05-05T00:12:10.576Z,86.50
2019-05-05T00:14:52.063Z,86.37
2019-05-05T00:17:25.161Z,86.17
2019-05-05T00:19:57.162Z,85.90
2019-05-05T00:22:29.120Z,86.20
2019-05-05T00:25:01.073Z,86.09
2019-05-05T00:27:34.700Z,86.07
2019-05-05T00:30:06.901Z,85.71
2019-05-05T00:32:38.894Z,85.87
2019-05-05T00:35:10.941Z,85.22
2019-05-05T00:37:44.946Z,86.08
2019-05-05T00:40:16.772Z,85.53
2019-05-05T00:42:48.760Z,85.74
2019-05-05T00:45:20.719Z,86.20
2019-05-05T00:48:05.784Z,86.38
2019-05-05T00:50:37.730Z,85.20
2019-05-05T00:53:09.744Z,86.24
2019-05-05T00:55:41.681Z,86.61
2019-05-05T00:58:14.347Z,86.73
2019-05-05T01:00:55.405Z,86.34
2019-05-05T01:03:27.575Z,86.13
2019-05-05T01:06:08.745Z,86.19
2019-05-05T01:08:40.718Z,85.84
2019-05-05T01:11:14.586Z,85.28
2019-05-05T01:13:46.504Z,86.10
2019-05-05T01:16:18.437Z,86.27
2019-05-05T01:18:50.420Z,86.72
2019-05-05T01:21:24.284Z,86.65
2019-05-05T01:23:56.218Z,86.79
2019-05-05T01:26:28.163Z,86.65
2019-05-05T01:29:00.155Z,86.61
2019-05-05T01:31:32.118Z,86.53
2019-05-05T01:34:24.350Z,86.45
2019-05-05T01:37:02.245Z,86.52
2019-05-05T01:39:41.568Z,86.69
2019-05-05T01:42:14.421Z,86.15
2019-05-05T01:44:46.425Z,86.49
2019-05-05T01:47:18.351Z,86.62
2019-05-05T01:49:50.327Z,86.49
2019-05-05T01:52:22.270Z,85.94
2019-05-05T01:54:54.777Z,86.10
2019-05-05T01:57:26.996Z,86.08
2019-05-05T01:59:59.269Z,86.15
2019-05-05T02:02:31.214Z,86.25
2019-05-05T02:05:04.596Z,86.56
2019-05-05T02:07:36.723Z,86.05
2019-05-05T02:10:08.801Z,86.64
2019-05-05T02:12:40.752Z,86.12
2019-05-05T02:15:14.920Z,85.73
2019-05-05T02:17:46.856Z,85.36
2019-05-05T02:20:56.607Z,85.83
2019-05-05T02:23:28.544Z,86.28
2019-05-05T02:26:00.583Z,85.48
2019-05-05T02:28:49.330Z,85.74
2019-05-05T02:31:28.481Z,86.34
2019-05-05T02:34:00.411Z,86.43
2019-05-05T02:36:35.284Z,86.20
2019-05-05T02:39:08.837Z,86.42
2019-05-05T02:41:41.711Z,86.72
2019-05-05T02:44:15.522Z,86.12
2019-05-05T02:46:55.122Z,86.16
2019-05-05T02:49:28.013Z,85.74
2019-05-05T02:51:59.969Z,86.08
2019-05-05T02:54:33.859Z,86.35
2019-05-05T02:57:06.923Z,85.94
2019-05-05T02:59:50.876Z,86.27
2019-05-05T03:02:25.042Z,86.76
2019-05-05T03:04:56.984Z,86.41
2019-05-05T03:07:29.422Z,84.89
2019-05-05T03:10:03.565Z,86.41
2019-05-05T03:12:36.144Z,86.71
2019-05-05T03:15:08.181Z,86.36
2019-05-05T03:17:40.140Z,86.88
2019-05-05T03:20:12.098Z,86.35
2019-05-05T03:22:44.056Z,86.46
2019-05-05T03:25:15.982Z,86.46
2019-05-05T03:27:48.805Z,86.08
2019-05-05T03:30:20.777Z,86.37
2019-05-05T03:32:55.746Z,84.68
2019-05-05T03:35:26.583Z,85.55
2019-05-05T03:37:58.542Z,85.70
2019-05-05T03:40:34.297Z,85.15
2019-05-05T03:43:14.415Z,85.18
2019-05-05T03:46:01.153Z,85.19
2019-05-05T03:48:34.620Z,85.17
2019-05-05T03:51:18.131Z,83.64
2019-05-05T03:53:40.732Z,84.18
2019-05-05T03:56:14.050Z,83.69
2019-05-05T03:58:46.147Z,84.29
2019-05-05T04:01:57.177Z,84.88
2019-05-05T04:04:33.562Z,85.24
2019-05-05T04:07:06.152Z,84.10
2019-05-05T04:09:38.201Z,83.89
2019-05-05T04:12:10.717Z,84.34
2019-05-05T04:14:44.099Z,83.91
2019-05-05T04:17:35.753Z,81.37
2019-05-05T04:20:26.209Z,82.21
2019-05-05T04:22:58.438Z,82.53
2019-05-05T04:25:30.388Z,81.14
2019-05-05T04:28:04.336Z,83.43
2019-05-05T04:30:36.238Z,83.87
2019-05-05T04:33:08.254Z,84.01
2019-05-05T04:35:40.209Z,84.12
2019-05-05T04:38:13.906Z,84.05
2019-05-05T04:40:46.023Z,83.62
2019-05-05T04:43:17.977Z,84.68
2019-05-05T04:45:49.949Z,83.77
2019-05-05T04:48:31.037Z,83.45
2019-05-05T04:51:18.876Z,83.38
2019-05-05T04:54:28.822Z,82.30
2019-05-05T04:57:00.791Z,82.18
2019-05-05T04:59:33.982Z,82.47
2019-05-05T05:02:14.537Z,81.88
2019-05-05T05:04:53.518Z,81.86
2019-05-05T05:07:25.585Z,81.28
2019-05-05T05:09:57.549Z,80.24
2019-05-05T05:12:29.475Z,80.08
2019-05-05T05:15:01.588Z,78.89
2019-05-05T05:17:44.329Z,79.24
2019-05-05T05:20:16.638Z,77.69
2019-05-05T05:22:48.562Z,79.06
2019-05-05T05:25:20.535Z,78.44
2019-05-05T05:27:53.632Z,78.19
2019-05-05T05:30:25.747Z,77.83
2019-05-05T05:32:57.755Z,76.04
2019-05-05T05:35:29.714Z,77.66
2019-05-05T05:38:01.709Z,76.51
2019-05-05T05:40:50.846Z,77.39
2019-05-05T05:43:29.925Z,77.50
2019-05-05T05:46:17.080Z,77.78
2019-05-05T05:49:07.231Z,77.07
2019-05-05T05:51:39.194Z,76.43
2019-05-05T05:54:11.150Z,74.52
2019-05-05T05:56:44.663Z,75.60
2019-05-05T05:59:16.696Z,76.04
2019-05-05T06:01:48.685Z,74.03
2019-05-05T06:04:20.649Z,72.26
2019-05-05T06:06:54.386Z,71.51
2019-05-05T06:09:26.481Z,72.74
2019-05-05T06:11:58.459Z,73.55
2019-05-05T06:14:30.439Z,74.70
2019-05-05T06:17:04.104Z,74.47
2019-05-05T06:19:36.250Z,73.02
2019-05-05T06:22:08.249Z,72.65
2019-05-05T06:24:40.220Z,72.00
2019-05-05T06:27:14.115Z,72.39
2019-05-05T06:29:46.064Z,72.38
2019-05-05T06:32:18.082Z,71.86
2019-05-05T06:34:50.053Z,72.38
2019-05-05T06:37:23.811Z,71.63
2019-05-05T06:39:59.204Z,72.55
2019-05-05T06:42:40.485Z,72.37
2019-05-05T06:45:23.891Z,71.91
2019-05-05T06:47:55.985Z,71.59
2019-05-05T06:50:27.941Z,71.57
2019-05-05T06:52:59.914Z,71.71
2019-05-05T06:55:33.617Z,71.87
2019-05-05T06:58:05.887Z,71.74
2019-05-05T07:00:37.831Z,72.01
2019-05-05T07:03:09.831Z,73.04
2019-05-05T07:05:43.723Z,71.85
2019-05-05T07:08:15.709Z,71.69
2019-05-05T07:10:47.668Z,70.54
2019-05-05T07:13:19.661Z,71.34
2019-05-05T07:15:51.625Z,69.10
2019-05-05T07:18:24.691Z,70.37
2019-05-05T07:20:56.750Z,69.58
2019-05-05T07:23:28.731Z,69.50
2019-05-05T07:26:00.691Z,68.76
2019-05-05T07:28:34.262Z,68.59
2019-05-05T07:31:06.395Z,68.72
2019-05-05T07:33:38.442Z,69.72
2019-05-05T07:36:28.587Z,68.19
2019-05-05T07:39:00.606Z,69.57
2019-05-05T07:41:34.065Z,68.49
2019-05-05T07:44:06.198Z,69.81
2019-05-05T07:46:38.154Z,69.48
2019-05-05T07:49:10.150Z,69.36
2019-05-05T07:51:43.932Z,68.14
2019-05-05T07:54:16.019Z,67.76
2019-05-05T07:56:47.980Z,68.81
2019-05-05T07:59:19.963Z,68.94
2019-05-05T08:01:51.925Z,67.59
2019-05-05T08:04:24.339Z,68.20
2019-05-05T08:06:56.359Z,68.14
2019-05-05T08:09:28.365Z,68.86
2019-05-05T08:12:00.407Z,69.25
2019-05-05T08:14:33.723Z,69.01
2019-05-05T08:17:23.540Z,66.26
2019-05-05T08:19:59.921Z,65.18
2019-05-05T08:22:33.879Z,65.14
2019-05-05T08:25:40.342Z,62.61
2019-05-05T08:28:19.296Z,63.83
2019-05-05T08:30:59.075Z,64.33
2019-05-05T08:33:31.048Z,63.52
2019-05-05T08:36:04.607Z,63.42
2019-05-05T08:38:36.753Z,64.65
2019-05-05T08:41:08.761Z,61.83
2019-05-05T08:43:40.770Z,61.43
2019-05-05T08:46:14.379Z,60.10
2019-05-05T08:48:46.564Z,60.74
2019-05-05T08:51:18.533Z,57.85
2019-05-05T08:53:50.531Z,58.99
2019-05-05T08:56:23.802Z,57.45
2019-05-05T08:58:55.790Z,58.76
2019-05-05T09:01:27.751Z,59.68
2019-05-05T09:03:59.732Z,60.12
2019-05-05T09:06:31.739Z,59.82
2019-05-05T09:09:05.308Z,59.69
2019-05-05T09:11:37.347Z,59.23
2019-05-05T09:14:09.370Z,60.75
2019-05-05T09:16:41.370Z,59.82
2019-05-05T09:19:17.165Z,58.30
2019-05-05T09:21:49.180Z,59.14
2019-05-05T09:24:40.778Z,59.83
2019-05-05T09:27:33.887Z,61.05
2019-05-05T09:30:06.641Z,60.66
2019-05-05T09:32:38.686Z,59.88
2019-05-05T09:35:10.648Z,58.94
2019-05-05T09:37:44.306Z,60.57
2019-05-05T09:40:21.128Z,60.18
2019-05-05T09:42:53.616Z,60.67
2019-05-05T09:45:25.853Z,60.54
2019-05-05T09:47:57.883Z,61.35
2019-05-05T09:50:29.879Z,60.48
2019-05-05T09:53:04.033Z,59.51
2019-05-05T09:55:35.830Z,58.56
2019-05-05T09:58:07.842Z,59.18
2019-05-05T10:00:40.975Z,59.69
2019-05-05T10:03:14.471Z,59.67
2019-05-05T10:05:46.820Z,58.97
2019-05-05T10:08:18.873Z,56.58
2019-05-05T10:10:50.856Z,56.69
2019-05-05T10:13:22.883Z,56.69
2019-05-05T10:15:55.020Z,54.56
2019-05-05T10:18:27.088Z,54.91
2019-05-05T10:20:59.061Z,52.64
2019-05-05T10:23:34.207Z,51.95
2019-05-05T10:26:08.622Z,53.18
2019-05-05T10:28:40.642Z,52.48
2019-05-05T10:31:13.829Z,53.05
2019-05-05T10:33:51.242Z,53.25
2019-05-05T10:36:24.481Z,53.45
2019-05-05T10:39:04.298Z,52.86
2019-05-05T10:41:36.076Z,53.39
2019-05-05T10:44:08.101Z,50.07
2019-05-05T10:46:40.069Z,50.86
2019-05-05T10:49:13.735Z,50.15
2019-05-05T10:51:45.893Z,51.43
2019-05-05T10:54:17.953Z,50.93
2019-05-05T10:56:49.928Z,49.97
2019-05-05T10:59:23.827Z,50.24
2019-05-05T11:01:55.856Z,49.39
2019-05-05T11:04:27.911Z,49.05
2019-05-05T11:06:59.929Z,49.13
2019-05-05T11:09:33.729Z,48.84
2019-05-05T11:12:05.919Z,48.84
2019-05-05T11:14:37.956Z,48.52
2019-05-05T11:17:09.960Z,47.34
2019-05-05T11:19:43.984Z,47.51
2019-05-05T11:22:15.887Z,48.30
2019-05-05T11:24:57.353Z,47.79
2019-05-05T11:27:24.004Z,47.69
2019-05-05T11:30:30.733Z,47.08
2019-05-05T11:33:20.911Z,45.70
2019-05-05T11:35:56.911Z,45.78
2019-05-05T11:38:28.928Z,46.67
2019-05-05T11:41:00.964Z,46.59
2019-05-05T11:43:33.788Z,47.27
2019-05-05T11:46:06.018Z,47.15
2019-05-05T11:48:38.009Z,45.10
2019-05-05T11:51:10.006Z,44.81
2019-05-05T11:53:42.075Z,45.53
2019-05-05T11:56:14.554Z,45.83
2019-05-05T11:58:46.692Z,46.99
2019-05-05T12:01:18.724Z,47.48
2019-05-05T12:03:50.696Z,46.94
2019-05-05T12:06:24.673Z,43.12
2019-05-05T12:08:57.601Z,43.86
2019-05-05T12:11:29.582Z,42.32
2019-05-05T12:14:03.867Z,44.63
2019-05-05T12:16:35.994Z,43.33
2019-05-05T12:19:11.153Z,43.15
2019-05-05T12:21:44.221Z,44.31
2019-05-05T12:24:21.920Z,43.82
2019-05-05T12:27:04.882Z,43.76
2019-05-05T12:29:44.440Z,44.16
2019-05-05T12:32:16.493Z,42.93
2019-05-05T12:34:48.496Z,43.95
2019-05-05T12:37:20.576Z,42.20
2019-05-05T12:39:54.479Z,43.62
2019-05-05T12:42:26.499Z,42.35
2019-05-05T12:45:05.111Z,43.16
2019-05-05T12:47:55.827Z,43.71
2019-05-05T12:50:27.810Z,40.21
2019-05-05T12:52:59.871Z,40.47
2019-05-05T12:55:38.976Z,39.75
2019-05-05T12:58:05.754Z,39.86
2019-05-05T13:00:39.760Z,40.45
2019-05-05T13:03:13.512Z,39.75
2019-05-05T13:05:45.557Z,42.08
2019-05-05T13:08:17.645Z,42.02
2019-05-05T13:10:49.622Z,42.96
2019-05-05T13:13:21.664Z,42.88
2019-05-05T13:15:53.751Z,43.60
2019-05-05T13:18:25.801Z,43.47
2019-05-05T13:21:04.813Z,43.17
2019-05-05T13:24:08.429Z,42.37
2019-05-05T13:26:54.268Z,42.96
2019-05-05T13:29:26.324Z,42.64
2019-05-05T13:31:58.415Z,41.98
2019-05-05T13:34:30.480Z,41.64
2019-05-05T13:37:03.605Z,41.62
2019-05-05T13:39:35.723Z,41.13
2019-05-05T13:42:07.688Z,39.58
2019-05-05T13:45:08.604Z,38.95
2019-05-05T13:47:40.720Z,38.94
2019-05-05T13:50:21.004Z,39.51
2019-05-05T13:52:52.983Z,38.51
2019-05-05T13:55:25.037Z,36.26
2019-05-05T13:57:57.068Z,37.22
2019-05-05T14:00:29.091Z,38.71
2019-05-05T14:03:01.105Z,38.45
2019-05-05T14:05:34.406Z,38.66
2019-05-05T14:08:06.556Z,37.79
2019-05-05T14:10:38.661Z,39.18
2019-05-05T14:13:10.704Z,37.67
2019-05-05T14:15:44.078Z,37.43
2019-05-05T14:18:16.163Z,37.38
2019-05-05T14:20:48.362Z,37.34
2019-05-05T14:23:20.800Z,37.98
2019-05-05T14:25:54.438Z,39.00
2019-05-05T14:28:26.623Z,38.64
2019-05-05T14:31:07.924Z,38.87
2019-05-05T14:33:57.382Z,39.04
2019-05-05T14:36:54.923Z,40.00
2019-05-05T14:39:26.937Z,40.62
2019-05-05T14:41:58.977Z,39.44
2019-05-05T14:44:30.967Z,40.73
2019-05-05T14:47:03.047Z,40.57
2019-05-05T14:49:35.030Z,40.88
2019-05-05T14:52:07.097Z,40.98
2019-05-05T14:54:39.106Z,40.40
2019-05-05T14:57:11.165Z,40.40
2019-05-05T14:59:43.169Z,41.01
2019-05-05T15:02:15.241Z,41.59
2019-05-05T15:04:47.230Z,40.40
2019-05-05T15:07:29.212Z,40.38
2019-05-05T15:10:19.442Z,41.06
2019-05-05T15:12:58.494Z,41.28
2019-05-05T15:15:30.513Z,41.35
2019-05-05T15:18:03.976Z,41.83
2019-05-05T15:20:36.645Z,43.50
2019-05-05T15:23:08.780Z,43.58
2019-05-05T15:25:40.783Z,43.58
2019-05-05T15:28:13.861Z,43.49
2019-05-05T15:30:45.914Z,41.25
2019-05-05T15:33:17.944Z,41.11
2019-05-05T15:35:49.929Z,41.79
2019-05-05T15:38:22.014Z,41.15
2019-05-05T15:40:54.698Z,41.14
2019-05-05T15:43:27.008Z,40.95
2019-05-05T15:45:58.970Z,41.26
2019-05-05T15:48:31.057Z,41.76
2019-05-05T15:51:04.171Z,40.57
2019-05-05T15:53:36.354Z,41.45
2019-05-05T15:56:08.426Z,41.39
2019-05-05T15:58:40.476Z,41.64
2019-05-05T16:01:14.231Z,42.20
2019-05-05T16:03:46.464Z,41.94
2019-05-05T16:06:18.506Z,41.01
2019-05-05T16:08:50.588Z,40.88
2019-05-05T16:11:23.386Z,42.20
2019-05-05T16:13:55.608Z,43.01
2019-05-05T16:17:06.540Z,41.43
2019-05-05T16:19:53.781Z,42.98
2019-05-05T16:22:38.418Z,43.58
2019-05-05T16:25:14.030Z,43.89
2019-05-05T16:27:46.423Z,43.89
2019-05-05T16:30:18.718Z,44.86
2019-05-05T16:32:50.712Z,43.52
2019-05-05T16:35:23.725Z,43.64
2019-05-05T16:37:55.849Z,43.71
2019-05-05T16:40:27.911Z,43.74
2019-05-05T16:42:59.953Z,44.63
2019-05-05T16:45:33.699Z,43.92
2019-05-05T16:48:05.928Z,42.93
2019-05-05T16:50:37.982Z,42.60
2019-05-05T16:53:29.575Z,42.31
2019-05-05T16:56:01.799Z,42.68
2019-05-05T16:58:33.850Z,44.47
2019-05-05T17:01:09.730Z,43.77
2019-05-05T17:03:45.435Z,42.97
2019-05-05T17:06:15.796Z,42.97
2019-05-05T17:08:47.822Z,43.41
2019-05-05T17:11:19.909Z,43.86
2019-05-05T17:14:14.533Z,43.31
2019-05-05T17:17:14.296Z,43.21
2019-05-05T17:20:05.005Z,43.74
2019-05-05T17:22:50.454Z,44.03
2019-05-05T17:25:24.495Z,45.02
2019-05-05T17:27:56.503Z,45.19
2019-05-05T17:30:28.882Z,44.46
2019-05-05T17:33:01.111Z,46.11
2019-05-05T17:35:33.691Z,46.11
2019-05-05T17:38:13.719Z,46.03
2019-05-05T17:41:04.063Z,46.05
2019-05-05T17:43:44.692Z,46.39
2019-05-05T17:46:38.886Z,45.77
2019-05-05T17:49:16.366Z,45.61
2019-05-05T17:51:57.460Z,45.37
2019-05-05T17:54:44.582Z,45.75
2019-05-05T17:57:16.783Z,46.34
2019-05-05T17:59:48.875Z,48.74
2019-05-05T18:02:21.043Z,48.74
2019-05-05T18:04:54.142Z,48.73
2019-05-05T18:07:36.063Z,48.68
2019-05-05T18:10:27.800Z,49.64
2019-05-05T18:13:22.460Z,50.49
2019-05-05T18:16:05.736Z,50.51
2019-05-05T18:18:37.918Z,51.07
2019-05-05T18:21:10.072Z,51.84
2019-05-05T18:23:43.903Z,51.71
2019-05-05T18:26:16.093Z,51.94
2019-05-05T18:28:48.343Z,52.57
2019-05-05T18:31:20.380Z,52.76
2019-05-05T18:33:54.304Z,53.36
2019-05-05T18:36:26.577Z,53.61
2019-05-05T18:38:58.700Z,53.76
2019-05-05T18:41:36.646Z,54.65
2019-05-05T18:44:17.196Z,55.49
2019-05-05T18:47:11.713Z,56.60
2019-05-05T18:49:42.823Z,57.51
2019-05-05T18:52:15.012Z,58.47
2019-05-05T18:54:47.049Z,59.31
2019-05-05T18:57:19.150Z,59.64
2019-05-05T18:59:51.269Z,59.80
2019-05-05T19:02:44.254Z,59.71
2019-05-05T19:05:34.723Z,60.10
2019-05-05T19:08:14.309Z,60.90
2019-05-05T19:10:46.514Z,60.93
2019-05-05T19:13:18.541Z,61.36
2019-05-05T19:15:50.635Z,61.73
2019-05-05T19:18:24.464Z,61.44
2019-05-05T19:21:03.619Z,61.82
2019-05-05T19:23:35.771Z,62.41
2019-05-05T19:26:08.017Z,62.54
2019-05-05T19:28:43.964Z,62.89
2019-05-05T19:31:15.484Z,63.30
2019-05-05T19:33:47.555Z,63.07
2019-05-05T19:36:19.564Z,63.84
2019-05-05T19:38:51.602Z,64.42
2019-05-05T19:41:23.863Z,64.17
2019-05-05T19:43:55.925Z,64.73
2019-05-05T19:46:59.925Z,64.91
2019-05-05T19:49:33.735Z,65.21
2019-05-05T19:52:05.969Z,64.65
2019-05-05T19:54:37.986Z,65.04
2019-05-05T19:57:10.087Z,65.17
2019-05-05T19:59:42.109Z,64.96
2019-05-05T20:02:14.215Z,65.22
2019-05-05T20:04:46.269Z,65.29
2019-05-05T20:07:18.313Z,65.26
2019-05-05T20:09:54.394Z,65.28
2019-05-05T20:12:28.035Z,65.33
2019-05-05T20:15:03.944Z,65.58
2019-05-05T20:17:36.695Z,65.76
2019-05-05T20:20:08.995Z,65.67
2019-05-05T20:22:41.017Z,65.83
2019-05-05T20:25:13.978Z,66.32
2019-05-05T20:27:50.250Z,66.07
2019-05-05T20:30:24.563Z,65.81
2019-05-05T20:33:03.884Z,66.08
2019-05-05T20:35:45.308Z,66.13
2019-05-05T20:38:28.168Z,67.17
2019-05-05T20:41:16.770Z,67.98
2019-05-05T20:43:48.886Z,68.17
2019-05-05T20:46:20.871Z,67.53
2019-05-05T20:48:54.484Z,67.82
2019-05-05T20:51:26.793Z,67.93
2019-05-05T20:53:58.808Z,67.68
2019-05-05T20:56:30.779Z,67.45
2019-05-05T20:59:03.192Z,67.90
2019-05-05T21:01:35.190Z,68.32
2019-05-05T21:04:08.469Z,69.17
2019-05-05T21:06:40.463Z,69.82
2019-05-05T21:09:14.222Z,70.35
2019-05-05T21:11:46.381Z,70.64
2019-05-05T21:14:33.656Z,70.50
2019-05-05T21:16:55.262Z,70.98
2019-05-05T21:19:27.267Z,70.92
2019-05-05T21:22:01.156Z,71.03
2019-05-05T21:24:33.520Z,70.78
2019-05-05T21:27:05.705Z,71.02
2019-05-05T21:29:42.101Z,70.80
2019-05-05T21:32:13.764Z,71.06
2019-05-05T21:34:45.506Z,70.53
2019-05-05T21:37:17.549Z,70.78
2019-05-05T21:39:49.600Z,70.94
2019-05-05T21:42:23.986Z,70.94
2019-05-05T21:44:55.482Z,70.93
2019-05-05T21:47:27.484Z,71.39
2019-05-05T21:49:59.482Z,71.55
2019-05-05T21:52:37.691Z,71.46
2019-05-05T21:55:21.470Z,71.29
2019-05-05T21:58:04.371Z,71.51
2019-05-05T22:01:04.442Z,70.87
2019-05-05T22:03:37.173Z,71.35
2019-05-05T22:06:09.161Z,71.65
2019-05-05T22:08:41.155Z,71.52
2019-05-05T22:11:14.706Z,71.83
2019-05-05T22:13:46.791Z,71.84
2019-05-05T22:16:18.746Z,72.02
2019-05-05T22:18:51.094Z,72.11
2019-05-05T22:21:36.213Z,71.78
2019-05-05T22:24:19.536Z,72.43
2019-05-05T22:26:53.912Z,72.66
2019-05-05T22:29:28.159Z,72.21
2019-05-05T22:32:00.159Z,72.89
2019-05-05T22:34:33.527Z,72.70
2019-05-05T22:37:09.087Z,72.74
2019-05-05T22:39:40.881Z,72.53
2019-05-05T22:42:13.969Z,72.90
2019-05-05T22:44:46.701Z,72.97
2019-05-05T22:47:18.696Z,72.84
2019-05-05T22:49:50.652Z,73.04
2019-05-05T22:52:25.617Z,73.01
2019-05-05T22:54:57.606Z,73.41
2019-05-05T22:57:29.594Z,73.79
2019-05-05T23:00:03.642Z,73.88
2019-05-05T23:02:38.299Z,73.84
2019-05-05T23:05:17.101Z,73.58
2019-05-05T23:07:49.069Z,73.39
2019-05-05T23:10:21.020Z,73.75
2019-05-05T23:12:54.528Z,73.53
2019-05-05T23:15:26.460Z,74.01
2019-05-05T23:18:06.963Z,74.50
2019-05-05T23:21:09.386Z,74.25
2019-05-05T23:23:56.285Z,74.53
2019-05-05T23:26:30.047Z,74.17
2019-05-05T23:29:01.988Z,74.37
2019-05-05T23:31:33.948Z,74.44
2019-05-05T23:34:05.968Z,74.45
2019-05-05T23:36:37.944Z,73.79
2019-05-05T23:39:09.879Z,73.54
2019-05-05T23:41:41.857Z,73.97
2019-05-05T23:44:16.830Z,74.18
2019-05-05T23:46:48.799Z,74.37
2019-05-05T23:49:20.747Z,74.33
2019-05-05T23:51:55.506Z,74.31
2019-05-05T23:54:27.491Z,74.56
2019-05-05T23:56:59.545Z,74.78
2019-05-05T23:59:31.490Z,74.99
